Time;durP1;ratioP1;P1;durP2;ratioP2;P2;SDS_P1;SDS_P2;PMS_P1;PMS_P2;Temp;Humidity;BMP_temperature;BMP_pressure;BME280_temperature;BME280_humidity;BME280_pressure;Samples;Min_cycle;Max_cycle;Signal;HPM_P1;HPM_P2
2022/04/25 00:00:40;;;;;;;58.25;38.75;;;;;;;8.26;87.05;98820.44;2199815;79;21083;-80
2022/04/25 00:03:41;;;;;;;61.65;41.63;;;;;;;8.21;87.28;98823.31;2205577;79;21503;-81
2022/04/25 00:06:45;;;;;;;64.20;42.25;;;;;;;8.17;87.56;98824.70;2200885;79;21044;-81
2022/04/25 00:09:46;;;;;;;66.17;42.30;;;;;;;8.14;87.51;98825.88;2202691;79;21044;-80
2022/04/25 00:12:48;;;;;;;68.47;42.15;;;;;;;8.10;87.77;98828.55;2199913;79;21119;-80
2022/04/25 00:15:52;;;;;;;68.35;43.08;;;;;;;8.07;87.82;98831.56;2201759;79;21067;-80
2022/04/25 00:18:53;;;;;;;73.37;45.92;;;;;;;8.05;87.94;98825.16;2203350;79;21088;-80
2022/04/25 00:21:54;;;;;;;72.58;44.88;;;;;;;8.03;88.19;98827.14;2201110;79;21037;-80
2022/04/25 00:24:55;;;;;;;68.92;43.13;;;;;;;8.03;88.44;98828.47;2199014;79;21497;-80
2022/04/25 00:27:59;;;;;;;74.42;46.25;;;;;;;8.00;88.47;98827.51;2201641;79;22787;-81
2022/04/25 00:31:02;;;;;;;68.07;43.73;;;;;;;7.99;88.46;98823.72;2201193;79;21063;-81
2022/04/25 00:34:03;;;;;;;66.57;43.20;;;;;;;7.98;88.68;98824.73;2201445;79;21685;-80
2022/04/25 00:37:05;;;;;;;69.37;43.63;;;;;;;7.97;88.90;98825.71;2199477;79;22678;-80
2022/04/25 00:40:08;;;;;;;69.40;43.05;;;;;;;7.94;89.05;98824.75;2202131;79;21097;-80
2022/04/25 00:43:10;;;;;;;65.75;42.95;;;;;;;7.93;88.99;98819.98;2199035;79;21531;-81
2022/04/25 00:46:24;;;;;;;57.50;39.67;;;;;;;7.93;88.99;98821.30;2198374;79;21075;-80
2022/04/25 00:49:26;;;;;;;59.30;40.60;;;;;;;7.94;89.04;98821.64;2201380;79;21551;-81
2022/04/25 00:52:27;;;;;;;57.90;38.35;;;;;;;7.96;88.79;98822.25;2200973;79;21036;-81
2022/04/25 00:55:29;;;;;;;58.60;37.80;;;;;;;8.00;88.61;98826.70;2216099;78;21068;-80
2022/04/25 00:58:31;;;;;;;55.23;36.17;;;;;;;8.03;88.62;98828.47;2227508;78;21037;-81
2022/04/25 01:01:36;;;;;;;57.70;35.83;;;;;;;8.07;88.56;98824.45;2222889;78;21291;-81
2022/04/25 01:04:37;;;;;;;55.12;35.50;;;;;;;8.09;88.42;98817.16;2221452;78;21092;-81
2022/04/25 01:07:39;;;;;;;52.13;35.03;;;;;;;8.15;88.34;98821.41;2218520;78;21045;-80
2022/04/25 01:10:40;;;;;;;59.45;34.98;;;;;;;8.18;88.29;98815.75;2216299;78;21033;-80
2022/04/25 01:13:43;;;;;;;53.83;35.15;;;;;;;8.18;88.21;98813.11;2216842;78;21041;-80
2022/04/25 01:16:45;;;;;;;52.83;35.05;;;;;;;8.20;88.21;98807.97;2224557;78;21041;-81
2022/04/25 01:19:49;;;;;;;62.17;37.55;;;;;;;8.24;88.19;98814.51;2224085;78;21049;-80
2022/04/25 01:29:53;;;;;;;58.85;36.53;;;;;;;8.35;87.97;98805.81;2219431;78;21080;-80
2022/04/25 01:32:55;;;;;;;53.70;35.20;;;;;;;8.41;87.92;98805.09;2221932;78;21560;-80
2022/04/25 01:35:56;;;;;;;55.55;34.10;;;;;;;8.46;87.82;98804.05;2224973;78;21051;-81
2022/04/25 01:38:58;;;;;;;53.42;33.58;;;;;;;8.53;87.78;98800.96;2221675;78;21048;-80
2022/04/25 01:42:03;;;;;;;54.95;33.98;;;;;;;8.52;87.47;98794.05;2227600;78;21021;-81
2022/04/25 01:45:05;;;;;;;51.85;32.15;;;;;;;8.53;87.34;98792.55;2218944;78;21013;-80
2022/04/25 01:48:07;;;;;;;49.70;32.17;;;;;;;8.57;87.34;98801.44;2222034;78;21523;-80
2022/04/25 01:51:08;;;;;;;54.05;32.65;;;;;;;8.58;87.26;98800.42;2219280;78;21040;-81
2022/04/25 01:54:09;;;;;;;52.90;34.00;;;;;;;8.60;87.21;98808.99;2181172;78;21120;-80
2022/04/25 01:57:11;;;;;;;53.68;33.55;;;;;;;8.65;87.19;98806.61;2216644;78;22419;-80
2022/04/25 02:00:13;;;;;;;53.58;34.10;;;;;;;8.70;87.10;98806.84;2224803;78;21527;-80
2022/04/25 02:03:14;;;;;;;61.10;36.90;;;;;;;8.71;86.95;98804.55;2218634;78;21060;-80
2022/04/25 02:06:18;;;;;;;52.15;33.80;;;;;;;8.69;86.84;98811.83;2217244;78;21038;-80
2022/04/25 02:09:21;;;;;;;52.08;34.05;;;;;;;8.59;86.86;98806.86;2217600;78;21040;-80
2022/04/25 02:12:22;;;;;;;53.78;33.65;;;;;;;8.59;86.87;98806.01;2226057;78;21531;-80
2022/04/25 02:15:24;;;;;;;49.53;32.05;;;;;;;8.58;86.97;98814.95;2220673;78;21081;-80
2022/04/25 02:18:26;;;;;;;49.93;30.43;;;;;;;8.60;86.97;98815.09;2219053;78;22405;-80
2022/04/25 02:21:27;;;;;;;48.42;31.93;;;;;;;8.64;86.98;98817.67;2222058;78;20989;-80
2022/04/25 02:24:29;;;;;;;48.00;31.07;;;;;;;8.68;86.95;98812.85;2218405;78;21064;-80
2022/04/25 02:27:30;;;;;;;47.23;29.85;;;;;;;8.67;86.85;98813.36;2225276;78;21555;-80
2022/04/25 02:30:35;;;;;;;46.30;29.70;;;;;;;8.69;86.84;98806.03;2216106;78;21040;-80
2022/04/25 02:33:40;;;;;;;47.43;30.40;;;;;;;8.68;86.75;98812.34;2217874;78;21536;-80
2022/04/25 02:36:45;;;;;;;42.33;29.55;;;;;;;8.64;86.67;98818.17;2216129;78;21551;-80
2022/04/25 02:39:46;;;;;;;49.42;30.00;;;;;;;8.59;86.80;98813.47;2221895;78;21100;-80
2022/04/25 02:42:50;;;;;;;48.75;30.92;;;;;;;8.54;86.87;98814.52;2217702;78;21052;-80
2022/04/25 02:45:51;;;;;;;60.25;35.92;;;;;;;8.51;86.96;98815.70;2223819;78;21069;-80
2022/04/25 02:48:53;;;;;;;44.40;27.98;;;;;;;8.47;86.98;98818.38;2224104;78;21056;-80
2022/04/25 02:51:54;;;;;;;47.33;30.37;;;;;;;8.44;87.15;98824.55;2217297;78;21495;-80
2022/04/25 02:54:58;;;;;;;40.80;27.25;;;;;;;8.40;87.20;98818.01;2208970;78;21678;-80
2022/04/25 02:57:59;;;;;;;48.78;29.52;;;;;;;8.37;87.20;98820.98;2201126;79;21115;-80
2022/04/25 03:01:04;;;;;;;44.35;28.52;;;;;;;8.35;87.32;98822.48;2200074;79;21385;-80
2022/04/25 03:04:05;;;;;;;42.78;27.98;;;;;;;8.34;87.41;98825.33;2199613;79;21535;-80
2022/04/25 03:07:08;;;;;;;42.75;28.20;;;;;;;8.30;87.49;98830.13;2198326;79;21076;-80
2022/04/25 03:10:10;;;;;;;40.17;26.57;;;;;;;8.28;87.72;98834.80;2199138;79;21028;-80
2022/04/25 03:13:13;;;;;;;37.58;27.13;;;;;;;8.25;87.77;98837.78;2201303;79;21052;-80
2022/04/25 03:16:17;;;;;;;39.25;25.82;;;;;;;8.22;87.84;98832.87;2201429;79;21088;-81
2022/04/25 03:19:18;;;;;;;40.23;25.82;;;;;;;8.21;87.95;98837.84;2198831;79;21151;-80
2022/04/25 03:22:23;;;;;;;37.05;26.25;;;;;;;8.18;87.99;98835.58;2201480;79;21060;-80
2022/04/25 03:25:27;;;;;;;39.50;27.32;;;;;;;8.17;88.12;98845.33;2169176;79;21013;-80
2022/04/25 03:28:29;;;;;;;40.33;28.73;;;;;;;8.12;88.28;98842.91;2201660;79;21052;-80
2022/04/25 03:31:32;;;;;;;43.05;29.55;;;;;;;8.04;88.37;98845.95;2198780;79;21099;-80
2022/04/25 03:34:36;;;;;;;42.13;29.63;;;;;;;8.00;88.22;98846.51;2197713;79;21112;-81
2022/04/25 03:37:37;;;;;;;42.55;28.67;;;;;;;8.01;88.18;98853.42;2162871;81;21041;-80
2022/04/25 03:40:45;;;;;;;34.60;26.20;;;;;;;8.05;88.22;98846.28;2130025;82;21111;-80
2022/04/25 03:43:47;;;;;;;38.78;27.22;;;;;;;8.09;88.21;98856.80;2126664;82;21548;-80
2022/04/25 03:46:52;;;;;;;37.67;25.95;;;;;;;8.11;88.08;98854.46;2184982;80;21048;-80
2022/04/25 03:49:54;;;;;;;30.57;23.92;;;;;;;8.15;88.10;98857.89;2124356;81;21073;-80
2022/04/25 03:53:04;;;;;;;31.12;23.05;;;;;;;8.19;88.02;98851.23;2165829;81;21048;-80
2022/04/25 03:59:27;;;;;;;31.87;21.07;;;;;;;8.28;88.03;98863.88;2213336;79;21557;-81
2022/04/25 04:02:29;;;;;;;30.95;21.37;;;;;;;8.34;87.93;98871.07;2212546;80;21051;-81
2022/04/25 04:05:30;;;;;;;29.37;20.90;;;;;;;8.36;87.89;98870.36;2209179;79;21084;-80
2022/04/25 04:08:32;;;;;;;29.70;21.30;;;;;;;8.36;87.78;98873.00;2213621;79;21041;-80
2022/04/25 04:11:46;;;;;;;29.50;21.02;;;;;;;8.39;87.75;98873.17;2216294;79;21308;-80
2022/04/25 04:14:40;;;;;;;26.93;19.98;;;;;;;8.43;87.81;98876.60;2212382;79;21136;-80
2022/04/25 04:17:42;;;;;;;32.23;20.77;;;;;;;8.48;87.76;98882.16;2214925;78;21049;-83
2022/04/25 04:20:44;;;;;;;32.85;22.00;;;;;;;8.51;87.72;98883.12;2215914;80;21626;-83
2022/04/25 04:23:45;;;;;;;35.70;21.82;;;;;;;8.54;87.61;98889.87;2144695;81;21080;-83
2022/04/25 04:26:46;;;;;;;33.02;22.13;;;;;;;8.57;87.63;98900.08;2220929;78;21546;-82
2022/04/25 04:29:48;;;;;;;34.73;22.70;;;;;;;8.58;87.49;98894.28;2219625;78;21068;-81
2022/04/25 04:32:52;;;;;;;36.50;22.17;;;;;;;8.59;87.58;98894.11;2218292;78;21065;-81
2022/04/25 04:39:17;;;;;;;34.30;22.93;;;;;;;8.64;87.53;98914.19;2098472;83;21546;-81
2022/04/25 04:42:18;;;;;;;36.88;22.45;;;;;;;8.68;87.41;98914.66;2097596;83;21556;-81
2022/04/25 04:45:20;;;;;;;28.10;20.52;;;;;;;8.64;87.30;98921.30;2202052;78;21057;-80
2022/04/25 04:48:24;;;;;;;32.10;22.22;;;;;;;8.52;87.18;98929.70;2216799;78;21053;-79
2022/04/25 04:51:25;;;;;;;26.30;19.35;;;;;;;8.44;87.29;98929.78;2221761;78;21064;-79
2022/04/25 04:54:26;;;;;;;23.27;17.37;;;;;;;8.37;87.44;98926.20;2221593;78;21044;-79
2022/04/25 04:57:27;;;;;;;19.30;15.58;;;;;;;8.33;87.43;98928.88;2227051;78;21084;-81
2022/04/25 05:00:29;;;;;;;19.73;15.13;;;;;;;8.28;87.46;98929.44;2232590;78;21036;-82
2022/04/25 05:03:31;;;;;;;19.32;13.00;;;;;;;8.26;87.62;98935.91;2247187;78;21530;-85
2022/04/25 05:06:34;;;;;;;17.10;13.55;;;;;;;8.21;87.77;98939.08;2233513;78;21559;-85
2022/04/25 05:09:38;;;;;;;18.92;13.32;;;;;;;8.14;87.95;98946.09;2228578;78;21056;-84
2022/04/25 05:12:54;;;;;;;18.05;13.45;;;;;;;8.07;88.25;98943.33;2233071;78;21016;-85
2022/04/25 05:15:57;;;;;;;19.75;13.30;;;;;;;8.04;88.55;98954.26;2234808;78;21067;-85
2022/04/25 05:19:00;;;;;;;16.50;11.45;;;;;;;7.99;89.10;98951.83;2235883;78;21060;-84
2022/04/25 05:22:02;;;;;;;14.25;11.03;;;;;;;7.91;89.73;98954.03;2237958;78;21063;-88
2022/04/25 05:25:06;;;;;;;12.60;8.98;;;;;;;7.84;89.62;98953.12;2247596;78;21055;-84
2022/04/25 05:28:08;;;;;;;10.98;8.08;;;;;;;7.77;90.41;98952.17;2232299;78;21468;-84
2022/04/25 05:31:11;;;;;;;9.43;7.55;;;;;;;7.72;90.23;98957.19;2224423;78;21531;-80
2022/04/25 05:34:15;;;;;;;9.65;7.60;;;;;;;7.67;90.26;98956.89;2234853;78;20984;-82
2022/04/25 05:37:18;;;;;;;7.67;6.58;;;;;;;7.66;90.23;98967.95;2225294;78;21000;-82
2022/04/25 05:40:25;;;;;;;8.28;7.42;;;;;;;7.65;90.34;98975.53;2230380;78;21032;-83
2022/04/25 05:43:25;;;;;;;11.45;7.28;;;;;;;7.63;90.56;98976.23;2224537;78;21021;-83
2022/04/25 05:46:31;;;;;;;9.53;6.75;;;;;;;7.64;90.58;98983.14;2230642;78;21048;-83
2022/04/25 05:52:58;;;;;;;6.65;5.95;;;;;;;7.62;91.77;98986.44;2226344;78;21642;-82
2022/04/25 05:56:02;;;;;;;8.93;7.20;;;;;;;7.59;91.52;98988.93;2221952;78;21049;-82
2022/04/25 05:59:08;;;;;;;13.25;6.53;;;;;;;7.61;91.30;98990.91;2213252;78;21559;-86
2022/04/25 06:02:09;;;;;;;7.42;5.22;;;;;;;7.60;91.60;98991.91;2216195;78;21555;-79
2022/04/25 06:05:11;;;;;;;7.33;5.33;;;;;;;7.62;91.57;98997.00;2215454;78;21583;-80
2022/04/25 06:08:13;;;;;;;6.30;5.70;;;;;;;7.60;91.67;99001.63;2217823;78;21008;-77
2022/04/25 06:11:15;;;;;;;6.17;4.80;;;;;;;7.61;91.63;99003.29;2220970;78;21032;-78
2022/04/25 06:14:17;;;;;;;7.78;5.25;;;;;;;7.59;91.64;99000.81;2217195;78;21037;-78
2022/04/25 06:17:19;;;;;;;6.05;5.12;;;;;;;7.60;91.64;99004.27;2215948;78;20997;-78
2022/04/25 06:20:24;;;;;;;6.33;5.15;;;;;;;7.61;91.70;99000.65;2215668;78;21020;-78
2022/04/25 06:23:26;;;;;;;6.92;5.08;;;;;;;7.62;91.90;99011.02;2214939;78;21040;-75
2022/04/25 06:26:30;;;;;;;5.50;5.00;;;;;;;7.60;91.87;99013.51;2217734;78;20947;-82
2022/04/25 06:29:31;;;;;;;6.90;5.50;;;;;;;7.63;91.83;99016.64;2217268;78;21394;-79
2022/04/25 06:32:36;;;;;;;7.30;5.78;;;;;;;7.64;91.90;99018.28;2217326;78;21013;-79
2022/04/25 06:35:38;;;;;;;7.80;5.55;;;;;;;7.66;92.12;99024.72;2213641;78;21041;-79
2022/04/25 06:38:40;;;;;;;9.75;5.85;;;;;;;7.64;91.92;99021.42;2211561;78;21067;-79
2022/04/25 06:41:41;;;;;;;6.42;5.53;;;;;;;7.66;91.99;99027.36;2214880;78;21044;-80
2022/04/25 06:44:45;;;;;;;6.87;6.15;;;;;;;7.64;92.05;99023.55;2216147;78;21079;-79
2022/04/25 06:47:48;;;;;;;36.60;15.23;;;;;;;7.62;92.20;99025.54;2212422;78;22283;-79
2022/04/25 06:50:50;;;;;;;33.55;12.15;;;;;;;7.61;91.95;99030.51;2214101;78;21068;-80
2022/04/25 06:53:54;;;;;;;14.80;7.37;;;;;;;7.61;92.26;99042.39;2209384;78;21109;-79
2022/04/25 06:56:58;;;;;;;13.70;8.50;;;;;;;7.58;92.19;99041.42;2214466;78;21032;-79
2022/04/25 07:00:03;;;;;;;14.18;7.65;;;;;;;7.57;91.93;99049.02;2214642;78;21063;-79
2022/04/25 07:03:06;;;;;;;17.85;8.78;;;;;;;7.60;91.82;99052.63;2216143;78;20994;-79
2022/04/25 07:06:09;;;;;;;16.00;8.70;;;;;;;7.63;91.76;99049.64;2213217;78;21042;-81
2022/04/25 07:09:15;;;;;;;10.32;7.08;;;;;;;7.65;92.06;99058.70;2212144;78;20978;-81
2022/04/25 07:12:18;;;;;;;8.23;7.00;;;;;;;7.62;91.69;99061.18;2213680;78;21538;-81
2022/04/25 07:15:20;;;;;;;10.32;8.03;;;;;;;7.66;91.54;99059.52;2213621;78;21001;-80
2022/04/25 07:18:21;;;;;;;10.10;8.23;;;;;;;7.65;91.41;99067.94;2215733;78;21043;-80
2022/04/25 07:31:26;;;;;;;10.65;7.70;;;;;;;7.70;91.20;99072.20;2211595;78;21084;-74
2022/04/25 07:34:28;;;;;;;9.73;8.05;;;;;;;7.69;91.12;99077.17;2217648;78;21508;-74
2022/04/25 07:37:33;;;;;;;11.12;8.48;;;;;;;7.70;91.09;99082.77;2215239;78;21020;-79
2022/04/25 07:40:36;;;;;;;11.35;9.23;;;;;;;7.66;90.94;99088.55;2214498;78;21073;-79
2022/04/25 07:43:40;;;;;;;11.83;9.15;;;;;;;7.64;90.79;99088.74;2215198;78;21044;-80
2022/04/25 07:46:44;;;;;;;11.18;9.65;;;;;;;7.62;90.76;99088.91;2211423;78;21049;-75
2022/04/25 07:49:48;;;;;;;14.83;10.48;;;;;;;7.58;90.44;99100.81;2216198;78;21048;-80
2022/04/25 07:52:55;;;;;;;10.85;9.38;;;;;;;7.54;90.53;99106.60;2208016;78;21659;-82
2022/04/25 07:55:59;;;;;;;11.05;9.33;;;;;;;7.52;90.42;99109.93;2216232;78;21072;-82
2022/04/25 07:59:05;;;;;;;14.75;10.10;;;;;;;7.51;90.36;99119.64;2225704;78;21044;-83
2022/04/25 08:02:10;;;;;;;12.00;9.73;;;;;;;7.49;90.34;99127.41;2201837;78;21094;-83
2022/04/25 08:05:13;;;;;;;11.57;9.80;;;;;;;7.52;90.32;99126.59;2225785;78;21103;-82
2022/04/25 08:08:16;;;;;;;9.88;8.88;;;;;;;7.49;90.14;99131.36;2229132;78;21879;-82
2022/04/25 08:11:20;;;;;;;11.20;9.00;;;;;;;7.46;90.05;99128.59;2224594;78;20993;-82
2022/04/25 08:18:02;;;;;;;10.23;8.60;;;;;;;7.49;89.74;99141.45;2226028;78;21016;-81
2022/04/25 08:21:06;;;;;;;9.28;8.33;;;;;;;7.51;89.95;99148.67;2231456;78;21041;-79
2022/04/25 08:24:12;;;;;;;9.48;8.33;;;;;;;7.57;89.93;99148.02;2229972;78;21020;-79
2022/04/25 08:27:19;;;;;;;11.35;8.28;;;;;;;7.58;89.55;99153.62;2227170;78;21061;-79
2022/04/25 08:30:24;;;;;;;10.95;8.83;;;;;;;7.60;89.51;99160.03;2223549;78;21087;-79
2022/04/25 08:33:27;;;;;;;9.45;8.18;;;;;;;7.56;89.29;99155.59;2225856;78;21506;-79
2022/04/25 08:36:31;;;;;;;9.88;8.05;;;;;;;7.52;89.02;99158.77;2230324;78;21452;-79
2022/04/25 08:39:34;;;;;;;8.80;7.58;;;;;;;7.51;88.87;99167.16;2226420;78;21589;-79
2022/04/25 08:42:37;;;;;;;10.20;8.25;;;;;;;7.53;88.84;99169.64;2225307;78;21020;-80
2022/04/25 08:45:42;;;;;;;9.85;8.43;;;;;;;7.50;88.77;99172.63;2229475;78;20945;-79
2022/04/25 08:48:44;;;;;;;11.38;9.73;;;;;;;7.49;88.87;99175.77;2200969;78;21048;-80
2022/04/25 08:51:47;;;;;;;10.53;8.13;;;;;;;7.51;88.86;99184.81;2211776;78;21099;-79
2022/04/25 08:54:50;;;;;;;10.50;9.20;;;;;;;7.58;88.89;99183.98;2224406;78;21060;-79
2022/04/25 08:57:54;;;;;;;12.45;9.45;;;;;;;7.61;88.80;99194.70;2210929;78;21564;-78
2022/04/25 09:00:56;;;;;;;11.38;9.85;;;;;;;7.60;88.71;99197.84;2214363;78;21017;-79
2022/04/25 09:04:04;;;;;;;11.85;9.38;;;;;;;7.58;88.51;99209.05;2213822;78;21237;-79
2022/04/25 09:07:08;;;;;;;13.05;10.32;;;;;;;7.62;88.51;99205.07;2210360;78;21536;-79
2022/04/25 09:10:17;;;;;;;11.65;10.15;;;;;;;7.63;88.50;99215.98;2216308;78;21006;-79
2022/04/25 09:13:19;;;;;;;9.78;8.78;;;;;;;7.67;88.44;99219.09;2213449;78;21106;-79
2022/04/25 09:16:21;;;;;;;11.12;9.85;;;;;;;7.67;88.22;99221.73;2213420;78;20977;-80
2022/04/25 09:19:23;;;;;;;11.70;9.85;;;;;;;7.70;88.13;99224.53;2215073;78;21025;-81
2022/04/25 09:22:34;;;;;;;12.58;9.98;;;;;;;7.68;87.89;99235.75;2212711;78;21005;-81
2022/04/25 09:25:39;;;;;;;12.93;10.40;;;;;;;7.66;87.82;99238.58;2212010;78;21558;-79
2022/04/25 09:28:57;;;;;;;12.15;10.30;;;;;;;7.64;87.74;99238.73;2211001;78;21001;-80
2022/04/25 09:31:59;;;;;;;13.00;9.78;;;;;;;7.64;87.70;99243.20;2217463;78;21092;-78
2022/04/25 09:35:26;;;;;;;10.90;9.75;;;;;;;7.64;87.65;99249.30;2210642;78;21081;-81
2022/04/25 09:38:37;;;;;;;12.35;10.65;;;;;;;7.66;87.61;99250.94;2213326;78;21124;-81
2022/04/25 09:41:38;;;;;;;11.25;9.70;;;;;;;7.64;87.65;99254.58;2210956;78;22193;-80
2022/04/25 09:44:59;;;;;;;14.15;12.03;;;;;;;7.68;87.59;99252.41;2216090;78;21060;-80
2022/04/25 09:48:09;;;;;;;12.73;10.48;;;;;;;7.68;87.24;99265.62;2215445;78;21520;-80
2022/04/25 09:51:15;;;;;;;12.30;10.45;;;;;;;7.66;87.11;99264.98;2214440;78;21041;-76
2022/04/25 09:54:24;;;;;;;15.63;11.80;;;;;;;7.66;87.11;99268.09;2211874;78;21088;-76
2022/04/25 09:57:32;;;;;;;14.87;10.93;;;;;;;7.66;87.14;99269.41;2211698;78;21048;-76
2022/04/25 10:00:38;;;;;;;17.95;11.73;;;;;;;7.60;86.91;99274.41;2209821;80;21021;-77
2022/04/25 10:03:42;;;;;;;17.90;14.03;;;;;;;7.60;87.00;99278.83;2213307;79;21495;-76
2022/04/25 10:06:46;;;;;;;39.60;26.95;;;;;;;7.61;87.00;99276.04;2207090;80;21032;-76
2022/04/25 10:09:52;;;;;;;18.50;13.18;;;;;;;7.58;86.64;99283.48;2211697;80;21069;-82
2022/04/25 10:12:57;;;;;;;14.18;12.33;;;;;;;7.58;86.84;99284.80;2213415;78;21026;-78
2022/04/25 10:16:03;;;;;;;16.10;13.32;;;;;;;7.57;86.81;99280.02;2212664;80;20994;-77
2022/04/25 10:19:08;;;;;;;14.98;11.60;;;;;;;7.55;86.92;99283.31;2215319;80;21029;-77
2022/04/25 10:22:12;;;;;;;15.05;12.60;;;;;;;7.55;87.06;99284.63;2218367;80;21022;-78
2022/04/25 10:25:17;;;;;;;21.45;14.03;;;;;;;7.54;86.95;99290.89;2209481;80;21055;-76
2022/04/25 10:28:37;;;;;;;14.30;11.43;;;;;;;7.53;86.95;99297.17;2209942;80;21527;-76
2022/04/25 10:31:44;;;;;;;14.20;11.57;;;;;;;7.56;86.90;99295.52;2212916;79;21576;-77
2022/04/25 10:34:51;;;;;;;12.70;10.65;;;;;;;7.55;86.75;99305.75;2216295;78;21054;-77
2022/04/25 10:37:53;;;;;;;10.72;9.53;;;;;;;7.57;86.85;99313.02;2211723;78;21551;-76
2022/04/25 10:44:27;;;;;;;9.75;8.75;;;;;;;7.60;86.75;99317.97;2206306;80;21622;-76
2022/04/25 10:47:29;;;;;;;12.28;9.60;;;;;;;7.61;86.69;99322.24;2214883;80;21415;-76
2022/04/25 10:50:36;;;;;;;12.15;9.50;;;;;;;7.63;86.64;99321.59;2209847;80;21031;-77
2022/04/25 10:54:05;;;;;;;12.10;10.05;;;;;;;7.62;86.62;99324.38;2204404;80;21555;-77
2022/04/25 10:57:14;;;;;;;9.83;8.83;;;;;;;7.64;86.73;99331.15;2210662;79;21053;-76
2022/04/25 11:00:40;;;;;;;11.38;9.93;;;;;;;7.61;86.88;99331.48;2210495;80;21097;-76
2022/04/25 11:03:50;;;;;;;12.05;10.15;;;;;;;7.53;86.97;99335.95;2210067;80;21032;-76
2022/04/25 11:07:25;;;;;;;12.85;10.30;;;;;;;7.54;87.09;99342.87;2209697;80;21590;-75
2022/04/25 11:10:47;;;;;;;13.15;11.35;;;;;;;7.53;87.24;99349.15;2213540;80;21013;-75
2022/04/25 11:14:01;;;;;;;13.08;10.90;;;;;;;7.56;87.70;99351.45;2211727;80;21069;-75
2022/04/25 11:17:11;;;;;;;15.50;11.93;;;;;;;7.55;87.74;99363.84;2211669;80;21480;-75
2022/04/25 11:20:20;;;;;;;12.50;10.95;;;;;;;7.57;88.10;99363.18;2207968;80;21044;-75
2022/04/25 11:23:30;;;;;;;12.18;10.60;;;;;;;7.55;88.09;99361.20;2177498;80;21056;-75
2022/04/25 11:26:37;;;;;;;12.98;10.53;;;;;;;7.55;88.48;99366.48;2212586;79;21060;-75
2022/04/25 11:29:45;;;;;;;13.90;12.20;;;;;;;7.52;88.23;99378.69;2211722;79;21057;-75
2022/04/25 11:32:50;;;;;;;14.73;11.95;;;;;;;7.54;88.31;99378.00;2205665;79;21108;-75
2022/04/25 11:35:59;;;;;;;12.88;11.22;;;;;;;7.60;88.53;99388.40;2207746;80;21496;-75
2022/04/25 11:42:29;;;;;;;17.43;12.00;;;;;;;7.60;88.49;99398.96;2210149;80;21094;-76
2022/04/25 11:45:32;;;;;;;13.68;11.40;;;;;;;7.62;88.52;99395.17;2212986;79;21364;-76
2022/04/25 11:48:34;;;;;;;13.72;11.60;;;;;;;7.64;88.38;99412.18;2209484;79;21029;-75
2022/04/25 11:51:39;;;;;;;14.13;12.23;;;;;;;7.66;88.46;99402.75;2191136;80;21005;-75
2022/04/25 11:54:44;;;;;;;15.98;12.03;;;;;;;7.69;88.60;99405.09;2215838;79;21537;-75
2022/04/25 11:57:46;;;;;;;14.95;11.78;;;;;;;7.73;88.70;99413.82;2218335;78;21092;-75
2022/04/25 12:00:48;;;;;;;16.52;12.15;;;;;;;7.69;88.37;99413.02;2219044;78;21013;-76
2022/04/25 12:03:51;;;;;;;13.75;11.88;;;;;;;7.70;88.46;99414.16;2217438;78;21021;-75
2022/04/25 12:07:08;;;;;;;15.63;12.45;;;;;;;7.77;88.67;99422.23;2216408;78;21073;-76
2022/04/25 12:17:03;;;;;;;21.30;13.65;;;;;;;7.79;88.35;99434.78;2216514;78;20997;-75
2022/04/25 12:20:09;;;;;;;17.32;14.13;;;;;;;7.77;88.36;99440.72;2217573;78;22646;-76
2022/04/25 12:23:27;;;;;;;19.55;14.43;;;;;;;7.76;88.11;99440.40;2218259;78;21362;-75
2022/04/25 12:26:30;;;;;;;19.12;14.63;;;;;;;7.73;88.17;99440.23;2203659;78;21064;-76
2022/04/25 12:29:31;;;;;;;21.87;16.77;;;;;;;7.78;88.30;99442.39;2216613;78;21610;-76
2022/04/25 12:32:35;;;;;;;20.70;15.58;;;;;;;7.78;88.12;99446.34;2184772;78;21009;-76
2022/04/25 12:35:39;;;;;;;21.73;14.55;;;;;;;7.82;88.26;99445.83;2178735;78;21053;-76
2022/04/25 12:38:51;;;;;;;23.27;16.97;;;;;;;7.85;87.86;99449.49;2213781;78;21571;-76
2022/04/25 12:41:56;;;;;;;19.00;16.17;;;;;;;7.88;87.96;99460.20;2213314;78;21446;-76
2022/04/25 12:44:58;;;;;;;20.60;16.27;;;;;;;7.95;88.18;99462.52;2214795;78;21055;-76
2022/04/25 12:48:00;;;;;;;19.52;16.20;;;;;;;7.94;87.84;99463.99;2213854;78;21531;-76
2022/04/25 12:51:02;;;;;;;24.85;19.73;;;;;;;7.92;87.80;99463.36;2216678;78;21012;-76
2022/04/25 12:54:08;;;;;;;22.55;17.67;;;;;;;7.92;87.79;99468.64;2213132;78;21071;-76
2022/04/25 12:57:22;;;;;;;22.95;17.12;;;;;;;7.90;87.68;99466.65;2214511;78;21099;-75
2022/04/25 13:00:26;;;;;;;19.30;15.72;;;;;;;7.93;87.84;99470.28;2213128;79;20989;-75
2022/04/25 13:03:28;;;;;;;21.10;14.98;;;;;;;7.93;87.76;99477.70;2210344;80;21421;-75
2022/04/25 13:06:31;;;;;;;19.35;15.95;;;;;;;7.98;88.03;99479.36;2212520;79;21016;-73
2022/04/25 13:09:40;;;;;;;19.00;15.38;;;;;;;7.96;87.59;99480.01;2215772;79;21411;-77
2022/04/25 13:12:43;;;;;;;23.85;17.37;;;;;;;7.95;87.33;99477.05;2209231;78;21053;-77
2022/04/25 13:15:47;;;;;;;20.00;16.25;;;;;;;7.95;87.35;99487.62;2209438;80;20989;-78
2022/04/25 13:18:48;;;;;;;22.48;17.37;;;;;;;7.94;87.19;99486.45;2208453;79;21092;-73
2022/04/25 13:21:50;;;;;;;23.65;17.42;;;;;;;7.96;87.39;99487.12;2208596;79;21017;-78
2022/04/25 13:24:51;;;;;;;27.10;17.75;;;;;;;8.01;87.30;99490.09;2187796;80;21076;-78
2022/04/25 13:27:57;;;;;;;26.37;19.45;;;;;;;8.02;87.10;99495.20;2209749;79;21991;-78
2022/04/25 13:30:58;;;;;;;23.70;18.02;;;;;;;8.05;87.08;99500.17;2213645;79;21025;-78
2022/04/25 13:34:02;;;;;;;22.82;17.75;;;;;;;8.03;86.76;99500.01;2207196;80;21060;-78
2022/04/25 13:37:06;;;;;;;26.42;18.02;;;;;;;8.01;86.58;99505.95;2213733;79;21505;-79
2022/04/25 13:40:11;;;;;;;22.90;17.57;;;;;;;8.03;86.71;99506.11;2212332;80;20982;-78
2022/04/25 13:43:17;;;;;;;23.52;17.52;;;;;;;8.10;86.85;99507.59;2211390;79;21061;-79
2022/04/25 13:46:19;;;;;;;22.75;17.32;;;;;;;8.14;86.63;99504.96;2214278;79;21044;-79
2022/04/25 13:49:22;;;;;;;18.93;14.97;;;;;;;8.18;86.54;99521.30;2209950;79;21152;-79
2022/04/25 13:52:25;;;;;;;21.87;17.30;;;;;;;8.21;86.23;99519.65;2210825;80;21041;-79
2022/04/25 13:55:29;;;;;;;31.52;17.37;;;;;;;8.24;86.33;99529.88;2213757;79;21060;-79
2022/04/25 13:58:31;;;;;;;20.82;15.58;;;;;;;8.23;86.02;99528.24;2216925;79;21052;-79
2022/04/25 14:01:35;;;;;;;20.30;15.75;;;;;;;8.18;85.74;99541.94;2216510;79;21093;-79
2022/04/25 14:04:37;;;;;;;19.57;15.75;;;;;;;8.18;85.91;99537.98;2221145;79;21082;-78
2022/04/25 14:07:39;;;;;;;19.12;15.40;;;;;;;8.20;85.36;99544.44;2216251;79;20997;-79
2022/04/25 14:10:47;;;;;;;21.33;14.55;;;;;;;8.23;85.59;99557.31;2217097;79;21614;-79
2022/04/25 14:13:49;;;;;;;23.65;16.20;;;;;;;8.26;85.30;99554.34;2218026;79;20993;-80
2022/04/25 14:16:53;;;;;;;19.82;14.60;;;;;;;8.27;85.09;99557.30;2206370;79;21021;-80
2022/04/25 14:19:55;;;;;;;19.62;14.05;;;;;;;8.29;84.35;99561.44;2219316;79;21099;-79
2022/04/25 14:23:00;;;;;;;22.17;13.85;;;;;;;8.30;84.53;99562.25;2218142;79;21053;-79
2022/04/25 14:26:06;;;;;;;19.55;14.40;;;;;;;8.29;84.11;99562.76;2216670;79;21091;-79
2022/04/25 14:29:07;;;;;;;16.57;13.30;;;;;;;8.31;84.29;99566.07;2212454;78;21013;-79
2022/04/25 14:32:09;;;;;;;17.12;12.93;;;;;;;8.32;84.49;99565.56;2218540;79;21055;-80
2022/04/25 14:35:11;;;;;;;17.35;12.55;;;;;;;8.37;84.60;99571.69;2220609;79;21587;-79
2022/04/25 14:38:22;;;;;;;14.98;11.30;;;;;;;8.38;84.39;99576.80;2216289;79;21585;-79
2022/04/25 14:41:20;;;;;;;15.78;12.05;;;;;;;8.37;84.19;99581.77;2214428;79;21029;-79
2022/04/25 14:44:21;;;;;;;19.52;11.78;;;;;;;8.32;83.81;99584.07;2214927;79;21101;-79
2022/04/25 14:47:25;;;;;;;16.00;12.88;;;;;;;8.28;83.70;99592.84;2210129;79;22215;-79
2022/04/25 14:57:14;;;;;;;15.85;11.63;;;;;;;8.28;83.81;99592.84;2212010;78;21037;-79
2022/04/25 15:00:17;;;;;;;13.48;10.40;;;;;;;8.30;83.93;99604.55;2219501;78;21081;-79
2022/04/25 15:03:19;;;;;;;14.43;11.40;;;;;;;8.26;83.38;99600.09;2222888;78;21036;-79
2022/04/25 15:06:21;;;;;;;12.95;9.90;;;;;;;8.25;83.68;99610.81;2216672;78;21021;-79
2022/04/25 15:09:27;;;;;;;14.35;11.03;;;;;;;8.29;83.74;99609.02;2209714;78;21076;-79
2022/04/25 15:12:30;;;;;;;14.55;11.43;;;;;;;8.30;83.71;99609.33;2219254;78;21033;-79